Главная страница
METAR-TAF:

METAR-TAF

Аэропорты :

Париж — Шарль-де-Голль, Франция

широта: 49-01N, долгота: 002-32E, высота над уровнем моря: 118 м

Текущие метеонаблюдения

Эта сводка был подготовлена 35 минут назад, в 13:00 UTC
Ветер 9 Узел от западный
Температура 23°C
Влажность 57%
Давление 1019 hPa
Видимость 10 км и более
небольшая облачность на высоте 4400 фута
Рассеянная облачность на высоте 7400 фута

METAR: LFPG 141300Z 28009KT 9999 FEW044 BKN074 23/14 Q1019 NOSIG

Время: 15:35 (13:35 UTC)

Прогноз

Эта сводка был подготовлена 2 часа и 35 минут назад, в 11:00 UTC
Прогноз действительный с 14-го 12 UTC до 15-го 18 UTC
Ветер 10 Узел от западный
Видимость 10 км и более
Рассеянная облачность на высоте 3500 фута
Вероятность 30% :
временами
С 15-го 01 UTC до 15-го 04 UTC
Рассеянная облачность на высоте 1200 фута

TAF: LFPG 141100Z 1412/1518 28010KT 9999 BKN035 TX27/1515Z TN16/1505Z PROB30 TEMPO 1501/1504 BKN012

Метеонаблюдения и прогнозы для более 4000 аэропортов (сводки METAR и TAF).

Имеющиеся станции представлены на карте желтыми и красными точками.

Чтобы увидеть название станции, наведите на нее мышь.

Затем щелкните, чтобы увидеть метеонаблюдения и метеопрогнозы.

Управление картой: чтобы увеличить масштаб, щелкните зеленые кнопки с черным крестиком; чтобы уменьшить масштаб, щелкните зеленую кнопку с тире; для просмотра соседних карт щелкайте зеленые стрелки.


METAR-TAF: